sensor_id;sensor_type;location;lat;lon;timestamp;pressure;altitude;pressure_sealevel;temperature;humidity
49611;BME280;35515;48.766;9.176;2023-05-11T00:01:30;98152.78;;;13.31;84.21
49611;BME280;35515;48.766;9.176;2023-05-11T00:03:56;98163.19;;;13.23;84.49
49611;BME280;35515;48.766;9.176;2023-05-11T00:06:23;98149.59;;;13.23;84.71
49611;BME280;35515;48.766;9.176;2023-05-11T00:08:49;98147.00;;;13.28;84.24
49611;BME280;35515;48.766;9.176;2023-05-11T00:11:16;98143.09;;;13.24;84.90
49611;BME280;35515;48.766;9.176;2023-05-11T00:13:42;98149.44;;;13.17;86.42
49611;BME280;35515;48.766;9.176;2023-05-11T00:16:10;98141.28;;;13.17;85.72
49611;BME280;35515;48.766;9.176;2023-05-11T00:18:37;98136.91;;;13.16;85.71
49611;BME280;35515;48.766;9.176;2023-05-11T00:21:03;98143.09;;;13.24;85.02
49611;BME280;35515;48.766;9.176;2023-05-11T00:23:30;98141.91;;;13.19;85.30
49611;BME280;35515;48.766;9.176;2023-05-11T00:25:56;98139.91;;;13.27;84.50
49611;BME280;35515;48.766;9.176;2023-05-11T00:28:23;98138.69;;;13.23;84.93
49611;BME280;35515;48.766;9.176;2023-05-11T00:30:54;98131.22;;;13.18;85.56
49611;BME280;35515;48.766;9.176;2023-05-11T00:33:22;98134.78;;;13.18;85.30
49611;BME280;35515;48.766;9.176;2023-05-11T00:35:50;98140.91;;;13.14;85.70
49611;BME280;35515;48.766;9.176;2023-05-11T00:38:16;98136.91;;;13.16;85.47
49611;BME280;35515;48.766;9.176;2023-05-11T00:40:43;98131.69;;;13.15;84.56
49611;BME280;35515;48.766;9.176;2023-05-11T00:43:09;98138.69;;;13.23;83.99
49611;BME280;35515;48.766;9.176;2023-05-11T00:45:36;98144.63;;;13.19;83.71
49611;BME280;35515;48.766;9.176;2023-05-11T00:48:04;98132.97;;;13.12;83.88
49611;BME280;35515;48.766;9.176;2023-05-11T00:50:33;98136.31;;;13.14;84.21
49611;BME280;35515;48.766;9.176;2023-05-11T00:52:59;98133.72;;;13.19;83.21
49611;BME280;35515;48.766;9.176;2023-05-11T00:55:26;98129.94;;;13.20;82.87
49611;BME280;35515;48.766;9.176;2023-05-11T00:57:53;98135.75;;;13.24;83.00
49611;BME280;35515;48.766;9.176;2023-05-11T01:00:20;98135.59;;;13.19;83.57
49611;BME280;35515;48.766;9.176;2023-05-11T01:02:47;98135.31;;;13.09;84.39
49611;BME280;35515;48.766;9.176;2023-05-11T01:05:13;98135.22;;;13.15;84.20
49611;BME280;35515;48.766;9.176;2023-05-11T01:07:47;98133.81;;;13.13;84.90
49611;BME280;35515;48.766;9.176;2023-05-11T01:10:20;98133.13;;;13.17;84.90
49611;BME280;35515;48.766;9.176;2023-05-11T01:12:56;98131.94;;;13.13;85.94
49611;BME280;35515;48.766;9.176;2023-05-11T01:15:29;98141.38;;;13.11;85.32
49611;BME280;35515;48.766;9.176;2023-05-11T01:18:10;98130.88;;;13.14;85.08
49611;BME280;35515;48.766;9.176;2023-05-11T01:20:42;98137.69;;;13.05;85.76
49611;BME280;35515;48.766;9.176;2023-05-11T01:26:09;98138.28;;;13.07;86.40
49611;BME280;35515;48.766;9.176;2023-05-11T01:29:00;98142.03;;;13.06;86.42
49611;BME280;35515;48.766;9.176;2023-05-11T01:31:33;98136.84;;;13.04;86.50
49611;BME280;35515;48.766;9.176;2023-05-11T01:34:02;98131.50;;;12.98;86.81
49611;BME280;35515;48.766;9.176;2023-05-11T01:36:33;98128.78;;;12.98;86.64
49611;BME280;35515;48.766;9.176;2023-05-11T01:39:02;98135.75;;;12.94;87.04
49611;BME280;35515;48.766;9.176;2023-05-11T01:41:32;98132.94;;;13.00;86.67
49611;BME280;35515;48.766;9.176;2023-05-11T01:44:03;98133.16;;;12.99;86.19
49611;BME280;35515;48.766;9.176;2023-05-11T01:46:33;98133.16;;;12.99;85.20
49611;BME280;35515;48.766;9.176;2023-05-11T01:49:02;98131.50;;;12.98;86.16
49611;BME280;35515;48.766;9.176;2023-05-11T01:51:34;98134.59;;;13.01;85.43
49611;BME280;35515;48.766;9.176;2023-05-11T01:54:05;98124.53;;;13.02;84.99
49611;BME280;35515;48.766;9.176;2023-05-11T01:56:32;98128.19;;;12.96;84.95
49611;BME280;35515;48.766;9.176;2023-05-11T01:59:01;98132.34;;;12.98;84.64
49611;BME280;35515;48.766;9.176;2023-05-11T02:01:28;98132.59;;;13.09;83.27
49611;BME280;35515;48.766;9.176;2023-05-11T02:03:58;98123.94;;;13.00;83.60
49611;BME280;35515;48.766;9.176;2023-05-11T02:06:28;98125.72;;;12.94;84.53
49611;BME280;35515;48.766;9.176;2023-05-11T02:08:57;98135.16;;;12.92;84.91
49611;BME280;35515;48.766;9.176;2023-05-11T02:11:26;98132.44;;;12.92;85.04
49611;BME280;35515;48.766;9.176;2023-05-11T02:13:55;98135.75;;;12.94;84.88
49611;BME280;35515;48.766;9.176;2023-05-11T02:16:23;98135.97;;;12.92;84.59
49611;BME280;35515;48.766;9.176;2023-05-11T02:18:52;98138.31;;;12.88;84.77
49611;BME280;35515;48.766;9.176;2023-05-11T02:21:21;98148.38;;;12.88;84.90
49611;BME280;35515;48.766;9.176;2023-05-11T02:23:48;98147.09;;;12.91;85.09
49611;BME280;35515;48.766;9.176;2023-05-11T02:26:16;98142.13;;;12.87;85.75
49611;BME280;35515;48.766;9.176;2023-05-11T02:28:43;98136.78;;;12.93;85.77
49611;BME280;35515;48.766;9.176;2023-05-11T02:31:15;98140.72;;;12.97;84.55
49611;BME280;35515;48.766;9.176;2023-05-11T02:33:45;98143.16;;;12.86;84.91
49611;BME280;35515;48.766;9.176;2023-05-11T02:36:15;98137.72;;;12.86;84.75
49611;BME280;35515;48.766;9.176;2023-05-11T02:38:45;98139.38;;;12.87;85.75
49611;BME280;35515;48.766;9.176;2023-05-11T02:41:16;98137.72;;;12.86;86.38
49611;BME280;35515;48.766;9.176;2023-05-11T02:43:46;98139.06;;;12.96;85.02
49611;BME280;35515;48.766;9.176;2023-05-11T02:46:19;98140.34;;;12.93;85.55
49611;BME280;35515;48.766;9.176;2023-05-11T02:48:49;98145.88;;;12.86;86.51
49611;BME280;35515;48.766;9.176;2023-05-11T02:51:18;98138.78;;;12.85;87.14
49611;BME280;35515;48.766;9.176;2023-05-11T02:53:50;98137.09;;;12.84;86.69
49611;BME280;35515;48.766;9.176;2023-05-11T02:56:18;98142.31;;;12.86;87.42
49611;BME280;35515;48.766;9.176;2023-05-11T02:58:47;98139.38;;;12.87;87.13
49611;BME280;35515;48.766;9.176;2023-05-11T03:01:14;98134.63;;;12.83;87.47
49611;BME280;35515;48.766;9.176;2023-05-11T03:03:42;98126.69;;;12.81;87.91
49611;BME280;35515;48.766;9.176;2023-05-11T03:06:08;98124.47;;;12.90;87.86
49611;BME280;35515;48.766;9.176;2023-05-11T03:08:35;98133.09;;;12.87;88.79
49611;BME280;35515;48.766;9.176;2023-05-11T03:11:03;98123.19;;;12.93;87.76
49611;BME280;35515;48.766;9.176;2023-05-11T03:13:31;98130.78;;;12.91;88.73
49611;BME280;35515;48.766;9.176;2023-05-11T03:15:59;98124.44;;;12.78;89.52
49611;BME280;35515;48.766;9.176;2023-05-11T03:18:28;98122.47;;;12.85;88.30
49611;BME280;35515;48.766;9.176;2023-05-11T03:20:56;98124.56;;;12.83;88.87
49611;BME280;35515;48.766;9.176;2023-05-11T03:23:24;98132.28;;;12.86;88.82
49611;BME280;35515;48.766;9.176;2023-05-11T03:25:52;98125.81;;;12.87;88.56
49611;BME280;35515;48.766;9.176;2023-05-11T03:28:21;98126.47;;;12.83;88.00
49611;BME280;35515;48.766;9.176;2023-05-11T03:30:51;98115.28;;;12.91;88.27
49611;BME280;35515;48.766;9.176;2023-05-11T03:33:18;98112.72;;;12.78;89.17
49611;BME280;35515;48.766;9.176;2023-05-11T03:35:47;98125.19;;;12.85;88.62
49611;BME280;35515;48.766;9.176;2023-05-11T03:38:15;98123.75;;;12.83;88.93
49611;BME280;35515;48.766;9.176;2023-05-11T03:40:42;98124.56;;;12.83;89.60
49611;BME280;35515;48.766;9.176;2023-05-11T03:43:11;98123.38;;;12.79;89.54
49611;BME280;35515;48.766;9.176;2023-05-11T03:45:42;98120.97;;;12.71;90.05
49611;BME280;35515;48.766;9.176;2023-05-11T03:48:09;98121.13;;;12.76;90.38
49611;BME280;35515;48.766;9.176;2023-05-11T03:50:37;98113.19;;;12.75;89.50
49611;BME280;35515;48.766;9.176;2023-05-11T03:53:04;98110.84;;;12.78;88.52
49611;BME280;35515;48.766;9.176;2023-05-11T03:55:31;98114.97;;;12.81;87.23
49611;BME280;35515;48.766;9.176;2023-05-11T03:57:58;98116.97;;;12.74;87.22
49611;BME280;35515;48.766;9.176;2023-05-11T04:00:25;98109.03;;;12.72;87.14
49611;BME280;35515;48.766;9.176;2023-05-11T04:02:53;98116.16;;;12.73;87.66
49611;BME280;35515;48.766;9.176;2023-05-11T04:05:20;98106.66;;;12.64;88.60
49611;BME280;35515;48.766;9.176;2023-05-11T04:07:46;98113.06;;;12.69;88.22
49611;BME280;35515;48.766;9.176;2023-05-11T04:10:13;98107.94;;;12.61;88.95
49611;BME280;35515;48.766;9.176;2023-05-11T04:12:39;98111.03;;;12.65;89.20
49611;BME280;35515;48.766;9.176;2023-05-11T04:15:06;98098.50;;;12.64;88.40
49611;BME280;35515;48.766;9.176;2023-05-11T04:17:33;98105.38;;;12.66;88.16
49611;BME280;35515;48.766;9.176;2023-05-11T04:20:01;98114.34;;;12.67;88.17
49611;BME280;35515;48.766;9.176;2023-05-11T04:22:28;98113.28;;;12.68;88.20
49611;BME280;35515;48.766;9.176;2023-05-11T04:24:54;98109.72;;;12.67;88.26
49611;BME280;35515;48.766;9.176;2023-05-11T04:27:21;98106.88;;;12.62;89.04
49611;BME280;35515;48.766;9.176;2023-05-11T04:29:47;98110.56;;;12.68;87.76
49611;BME280;35515;48.766;9.176;2023-05-11T04:32:14;98115.53;;;12.71;87.58
49611;BME280;35515;48.766;9.176;2023-05-11T04:34:40;98116.47;;;12.65;88.11
49611;BME280;35515;48.766;9.176;2023-05-11T04:37:09;98117.59;;;12.57;88.66
49611;BME280;35515;48.766;9.176;2023-05-11T04:39:35;98116.66;;;12.63;88.16
49611;BME280;35515;48.766;9.176;2023-05-11T04:42:02;98113.75;;;12.65;87.65
49611;BME280;35515;48.766;9.176;2023-05-11T04:44:28;98111.63;;;12.67;87.66
49611;BME280;35515;48.766;9.176;2023-05-11T04:46:56;98116.81;;;12.68;87.63
49611;BME280;35515;48.766;9.176;2023-05-11T04:49:22;98111.63;;;12.67;88.12
49611;BME280;35515;48.766;9.176;2023-05-11T04:51:49;98119.78;;;12.67;87.53
49611;BME280;35515;48.766;9.176;2023-05-11T04:54:17;98113.59;;;12.60;87.70
49611;BME280;35515;48.766;9.176;2023-05-11T04:56:43;98117.50;;;12.64;87.96
49611;BME280;35515;48.766;9.176;2023-05-11T04:59:10;98118.94;;;12.66;87.62
49611;BME280;35515;48.766;9.176;2023-05-11T05:01:36;98119.19;;;12.65;87.56
49611;BME280;35515;48.766;9.176;2023-05-11T05:04:03;98121.91;;;12.65;87.28
49611;BME280;35515;48.766;9.176;2023-05-11T05:06:29;98131.38;;;12.74;86.18
49611;BME280;35515;48.766;9.176;2023-05-11T05:08:57;98117.50;;;12.64;86.23
49611;BME280;35515;48.766;9.176;2023-05-11T05:11:24;98123.53;;;12.66;86.05
49611;BME280;35515;48.766;9.176;2023-05-11T05:13:51;98125.28;;;12.60;86.84
49611;BME280;35515;48.766;9.176;2023-05-11T05:16:17;98115.03;;;12.62;87.06
49611;BME280;35515;48.766;9.176;2023-05-11T05:18:44;98125.13;;;12.74;86.33
49611;BME280;35515;48.766;9.176;2023-05-11T05:21:10;98120.97;;;12.71;86.74
49611;BME280;35515;48.766;9.176;2023-05-11T05:23:37;98123.53;;;12.66;87.26
49611;BME280;35515;48.766;9.176;2023-05-11T05:26:03;98121.06;;;12.64;87.89
49611;BME280;35515;48.766;9.176;2023-05-11T05:28:31;98128.22;;;12.59;87.83
49611;BME280;35515;48.766;9.176;2023-05-11T05:31:00;98126.09;;;12.61;87.96
49611;BME280;35515;48.766;9.176;2023-05-11T05:33:26;98128.88;;;12.73;86.44
49611;BME280;35515;48.766;9.176;2023-05-11T05:35:53;98131.09;;;12.64;86.51
49611;BME280;35515;48.766;9.176;2023-05-11T05:38:19;98132.97;;;12.82;87.27
49611;BME280;35515;48.766;9.176;2023-05-11T05:40:46;98135.91;;;12.80;87.09
49611;BME280;35515;48.766;9.176;2023-05-11T05:43:12;98127.91;;;12.67;86.99
49611;BME280;35515;48.766;9.176;2023-05-11T05:45:40;98126.50;;;12.64;87.94
49611;BME280;35515;48.766;9.176;2023-05-11T05:48:06;98135.69;;;12.63;88.33
49611;BME280;35515;48.766;9.176;2023-05-11T05:50:34;98133.97;;;12.69;86.35
49611;BME280;35515;48.766;9.176;2023-05-11T05:53:00;98135.94;;;12.62;85.94
49611;BME280;35515;48.766;9.176;2023-05-11T05:55:27;98144.06;;;12.62;86.00
49611;BME280;35515;48.766;9.176;2023-05-11T05:57:53;98139.94;;;12.59;86.87
49611;BME280;35515;48.766;9.176;2023-05-11T06:00:20;98141.97;;;12.64;86.56
49611;BME280;35515;48.766;9.176;2023-05-11T06:02:48;98146.13;;;12.66;87.16
49611;BME280;35515;48.766;9.176;2023-05-11T06:05:14;98137.75;;;12.68;87.60
49611;BME280;35515;48.766;9.176;2023-05-11T06:07:41;98143.47;;;12.78;86.16
49611;BME280;35515;48.766;9.176;2023-05-11T06:10:07;98142.88;;;12.76;87.62
49611;BME280;35515;48.766;9.176;2023-05-11T06:12:34;98144.97;;;12.74;86.32
49611;BME280;35515;48.766;9.176;2023-05-11T06:15:00;98151.91;;;12.70;85.96
49611;BME280;35515;48.766;9.176;2023-05-11T06:17:27;98144.97;;;12.74;85.96
49611;BME280;35515;48.766;9.176;2023-05-11T06:19:55;98151.91;;;12.70;86.32
49611;BME280;35515;48.766;9.176;2023-05-11T06:22:21;98145.88;;;12.86;86.74
49611;BME280;35515;48.766;9.176;2023-05-11T06:24:48;98142.53;;;12.84;84.67
49611;BME280;35515;48.766;9.176;2023-05-11T06:27:14;98142.63;;;12.78;85.35
49611;BME280;35515;48.766;9.176;2023-05-11T06:29:41;98144.50;;;12.96;84.64
49611;BME280;35515;48.766;9.176;2023-05-11T06:32:07;98149.66;;;12.85;86.00
49611;BME280;35515;48.766;9.176;2023-05-11T06:34:34;98150.13;;;12.82;86.03
49611;BME280;35515;48.766;9.176;2023-05-11T06:37:02;98148.91;;;12.78;86.32
49611;BME280;35515;48.766;9.176;2023-05-11T06:39:28;98151.22;;;12.93;86.91
49611;BME280;35515;48.766;9.176;2023-05-11T06:41:55;98145.50;;;12.83;86.51
49611;BME280;35515;48.766;9.176;2023-05-11T06:44:21;98149.03;;;12.83;86.75
49611;BME280;35515;48.766;9.176;2023-05-11T06:46:48;98143.00;;;12.81;86.81
49611;BME280;35515;48.766;9.176;2023-05-11T06:49:14;98141.81;;;12.77;87.37
49611;BME280;35515;48.766;9.176;2023-05-11T06:51:41;98143.59;;;12.83;87.96
49611;BME280;35515;48.766;9.176;2023-05-11T06:54:09;98148.59;;;12.86;87.70
49611;BME280;35515;48.766;9.176;2023-05-11T06:56:35;98156.16;;;12.66;89.23
49611;BME280;35515;48.766;9.176;2023-05-11T06:59:02;98156.16;;;12.66;88.65
49611;BME280;35515;48.766;9.176;2023-05-11T07:01:28;98148.91;;;12.78;89.61
49611;BME280;35515;48.766;9.176;2023-05-11T07:03:55;98140.44;;;12.86;88.76
49611;BME280;35515;48.766;9.176;2023-05-11T07:06:22;98147.53;;;12.87;88.35
49611;BME280;35515;48.766;9.176;2023-05-11T07:08:48;98152.84;;;12.82;90.06
49611;BME280;35515;48.766;9.176;2023-05-11T07:11:16;98164.16;;;12.79;89.92
49611;BME280;35515;48.766;9.176;2023-05-11T07:13:43;98152.31;;;12.74;91.44
49611;BME280;35515;48.766;9.176;2023-05-11T07:16:09;98170.94;;;12.70;91.90
49611;BME280;35515;48.766;9.176;2023-05-11T07:18:36;98155.09;;;12.85;91.81
49611;BME280;35515;48.766;9.176;2023-05-11T07:21:02;98154.34;;;12.78;91.64
49611;BME280;35515;48.766;9.176;2023-05-11T07:23:29;98156.00;;;12.79;92.84
49611;BME280;35515;48.766;9.176;2023-05-11T07:25:55;98160.22;;;12.75;93.43
49611;BME280;35515;48.766;9.176;2023-05-11T07:28:23;98165.06;;;12.73;92.97
49611;BME280;35515;48.766;9.176;2023-05-11T07:30:50;98159.63;;;12.73;93.51
49611;BME280;35515;48.766;9.176;2023-05-11T07:33:17;98165.75;;;12.68;92.04
49611;BME280;35515;48.766;9.176;2023-05-11T07:35:43;98169.81;;;12.78;94.04
49611;BME280;35515;48.766;9.176;2023-05-11T07:38:10;98165.50;;;12.70;94.88
49611;BME280;35515;48.766;9.176;2023-05-11T07:40:38;98158.56;;;12.74;97.15
49611;BME280;35515;48.766;9.176;2023-05-11T07:43:04;98165.22;;;12.78;94.92
49611;BME280;35515;48.766;9.176;2023-05-11T07:45:32;98167.94;;;12.78;93.45
49611;BME280;35515;48.766;9.176;2023-05-11T07:47:58;98161.66;;;12.78;92.61
49611;BME280;35515;48.766;9.176;2023-05-11T07:50:25;98165.22;;;12.78;90.95
49611;BME280;35515;48.766;9.176;2023-05-11T07:52:51;98165.44;;;12.77;92.43
49611;BME280;35515;48.766;9.176;2023-05-11T07:55:18;98172.03;;;12.69;92.62
49611;BME280;35515;48.766;9.176;2023-05-11T07:57:49;98161.97;;;12.69;92.07
49611;BME280;35515;48.766;9.176;2023-05-11T08:00:17;98159.88;;;12.71;93.66
49611;BME280;35515;48.766;9.176;2023-05-11T08:02:45;98155.41;;;12.77;94.52
49611;BME280;35515;48.766;9.176;2023-05-11T08:05:12;98159.31;;;12.81;94.20
49611;BME280;35515;48.766;9.176;2023-05-11T08:07:39;98156.00;;;12.79;95.66
49611;BME280;35515;48.766;9.176;2023-05-11T08:10:06;98149.03;;;12.83;95.16
49611;BME280;35515;48.766;9.176;2023-05-11T08:12:33;98161.63;;;12.96;95.61
49611;BME280;35515;48.766;9.176;2023-05-11T08:15:01;98158.53;;;12.93;94.72
49611;BME280;35515;48.766;9.176;2023-05-11T08:17:28;98157.72;;;12.92;94.47
49611;BME280;35515;48.766;9.176;2023-05-11T08:19:56;98165.66;;;12.94;94.47
49611;BME280;35515;48.766;9.176;2023-05-11T08:22:22;98158.63;;;12.86;96.84
49611;BME280;35515;48.766;9.176;2023-05-11T08:24:49;98161.88;;;12.95;95.62
49611;BME280;35515;48.766;9.176;2023-05-11T08:27:16;98153.81;;;12.88;95.69
49611;BME280;35515;48.766;9.176;2023-05-11T08:29:42;98154.75;;;13.12;95.71
49611;BME280;35515;48.766;9.176;2023-05-11T08:32:09;98155.75;;;13.30;91.90
49611;BME280;35515;48.766;9.176;2023-05-11T08:34:36;98158.06;;;13.14;91.99
49611;BME280;35515;48.766;9.176;2023-05-11T08:37:03;98162.13;;;13.24;92.35
49611;BME280;35515;48.766;9.176;2023-05-11T08:39:31;98164.19;;;13.10;91.80
49611;BME280;35515;48.766;9.176;2023-05-11T08:42:01;98159.44;;;13.05;92.98
49611;BME280;35515;48.766;9.176;2023-05-11T08:44:31;98164.59;;;12.95;93.64
49611;BME280;35515;48.766;9.176;2023-05-11T08:46:57;98164.50;;;13.01;93.12
49611;BME280;35515;48.766;9.176;2023-05-11T08:49:25;98158.25;;;13.01;92.86
49611;BME280;35515;48.766;9.176;2023-05-11T08:51:51;98159.16;;;12.95;93.50
49611;BME280;35515;48.766;9.176;2023-05-11T08:54:19;98164.50;;;13.01;90.85
49611;BME280;35515;48.766;9.176;2023-05-11T08:56:46;98164.69;;;12.88;92.38
49611;BME280;35515;48.766;9.176;2023-05-11T08:59:16;98169.22;;;12.94;93.06
49611;BME280;35515;48.766;9.176;2023-05-11T09:01:44;98163.84;;;12.87;94.35
49611;BME280;35515;48.766;9.176;2023-05-11T09:04:12;98160.75;;;12.84;94.56
49611;BME280;35515;48.766;9.176;2023-05-11T09:06:40;98167.13;;;13.08;92.83
49611;BME280;35515;48.766;9.176;2023-05-11T09:09:07;98165.31;;;13.02;92.43
49611;BME280;35515;48.766;9.176;2023-05-11T09:11:35;98157.88;;;12.97;93.44
49611;BME280;35515;48.766;9.176;2023-05-11T09:14:02;98166.66;;;13.11;93.05
49611;BME280;35515;48.766;9.176;2023-05-11T09:16:28;98164.03;;;13.04;93.12
49611;BME280;35515;48.766;9.176;2023-05-11T09:18:58;98162.75;;;13.07;92.21
49611;BME280;35515;48.766;9.176;2023-05-11T09:21:25;98164.97;;;12.98;93.68
49611;BME280;35515;48.766;9.176;2023-05-11T09:23:54;98158.50;;;13.11;91.73
49611;BME280;35515;48.766;9.176;2023-05-11T09:26:24;98160.94;;;13.19;91.21
49611;BME280;35515;48.766;9.176;2023-05-11T09:28:56;98154.75;;;13.12;92.34
49611;BME280;35515;48.766;9.176;2023-05-11T09:31:36;98155.34;;;13.14;92.02
49611;BME280;35515;48.766;9.176;2023-05-11T09:34:14;98165.44;;;13.26;90.32
49611;BME280;35515;48.766;9.176;2023-05-11T09:36:42;98164.19;;;13.10;88.97
49611;BME280;35515;48.766;9.176;2023-05-11T09:39:09;98162.41;;;13.03;90.99
49611;BME280;35515;48.766;9.176;2023-05-11T09:41:37;98162.00;;;13.18;90.66
49611;BME280;35515;48.766;9.176;2023-05-11T09:44:09;98156.88;;;13.10;92.38
49611;BME280;35515;48.766;9.176;2023-05-11T09:46:37;98152.03;;;13.12;91.63
49611;BME280;35515;48.766;9.176;2023-05-11T09:49:06;98161.22;;;13.11;91.45
49611;BME280;35515;48.766;9.176;2023-05-11T09:51:34;98155.88;;;13.35;88.50
49611;BME280;35515;48.766;9.176;2023-05-11T09:54:14;98160.38;;;13.29;87.71
49611;BME280;35515;48.766;9.176;2023-05-11T09:56:43;98158.78;;;13.21;88.74
49611;BME280;35515;48.766;9.176;2023-05-11T09:59:14;98159.09;;;13.32;87.88
49611;BME280;35515;48.766;9.176;2023-05-11T10:01:40;98159.41;;;13.24;89.38
49611;BME280;35515;48.766;9.176;2023-05-11T10:04:07;98159.41;;;13.24;89.41
49611;BME280;35515;48.766;9.176;2023-05-11T10:06:45;98158.97;;;13.08;90.25
49611;BME280;35515;48.766;9.176;2023-05-11T10:09:12;98158.06;;;13.14;91.22
49611;BME280;35515;48.766;9.176;2023-05-11T10:11:42;98160.50;;;13.04;93.82
49611;BME280;35515;48.766;9.176;2023-05-11T10:14:12;98157.00;;;13.15;92.55
49611;BME280;35515;48.766;9.176;2023-05-11T10:16:41;98154.28;;;13.15;92.97
49611;BME280;35515;48.766;9.176;2023-05-11T10:19:09;98160.31;;;13.36;89.58
49611;BME280;35515;48.766;9.176;2023-05-11T10:21:36;98158.50;;;13.11;91.08
49611;BME280;35515;48.766;9.176;2023-05-11T10:24:04;98156.56;;;13.18;88.82
49611;BME280;35515;48.766;9.176;2023-05-11T10:26:31;98166.53;;;13.06;91.22
49611;BME280;35515;48.766;9.176;2023-05-11T10:28:59;98155.22;;;13.09;92.22
49611;BME280;35515;48.766;9.176;2023-05-11T10:31:27;98160.88;;;13.08;93.09
49611;BME280;35515;48.766;9.176;2023-05-11T10:33:54;98148.63;;;13.29;91.21
49611;BME280;35515;48.766;9.176;2023-05-11T10:36:22;98143.38;;;13.15;91.42
49611;BME280;35515;48.766;9.176;2023-05-11T10:38:50;98150.59;;;13.10;90.24
49611;BME280;35515;48.766;9.176;2023-05-11T10:41:28;98153.97;;;13.24;89.66
49611;BME280;35515;48.766;9.176;2023-05-11T10:44:11;98138.28;;;13.07;91.82
49611;BME280;35515;48.766;9.176;2023-05-11T10:46:56;98144.97;;;13.23;90.52
49611;BME280;35515;48.766;9.176;2023-05-11T10:49:46;98147.34;;;13.31;89.20
49611;BME280;35515;48.766;9.176;2023-05-11T10:52:30;98143.19;;;13.29;88.05
49611;BME280;35515;48.766;9.176;2023-05-11T10:55:09;98146.53;;;13.31;88.21
49611;BME280;35515;48.766;9.176;2023-05-11T10:57:53;98146.63;;;13.24;87.70
49611;BME280;35515;48.766;9.176;2023-05-11T11:03:34;98145.06;;;13.47;82.91
49611;BME280;35515;48.766;9.176;2023-05-11T11:06:01;98139.88;;;13.45;83.26
49611;BME280;35515;48.766;9.176;2023-05-11T11:08:28;98144.97;;;13.53;85.05
49611;BME280;35515;48.766;9.176;2023-05-11T11:11:27;98139.16;;;13.50;84.76
49611;BME280;35515;48.766;9.176;2023-05-11T11:13:58;98135.66;;;13.31;85.75
49611;BME280;35515;48.766;9.176;2023-05-11T11:16:27;98129.72;;;13.34;87.18
49611;BME280;35515;48.766;9.176;2023-05-11T11:21:55;98125.78;;;13.48;87.92
49611;BME280;35515;48.766;9.176;2023-05-11T11:24:43;98135.34;;;13.39;89.51
49611;BME280;35515;48.766;9.176;2023-05-11T11:27:11;98136.03;;;13.34;90.93
49611;BME280;35515;48.766;9.176;2023-05-11T11:29:38;98138.81;;;13.46;89.20
49611;BME280;35515;48.766;9.176;2023-05-11T11:32:24;98132.91;;;13.49;88.94
49611;BME280;35515;48.766;9.176;2023-05-11T11:34:51;98118.22;;;13.50;88.49
49611;BME280;35515;48.766;9.176;2023-05-11T11:37:19;98134.22;;;13.59;88.25
49611;BME280;35515;48.766;9.176;2023-05-11T11:39:53;98132.94;;;13.61;86.49
49611;BME280;35515;48.766;9.176;2023-05-11T11:42:33;98135.00;;;13.47;87.24
49611;BME280;35515;48.766;9.176;2023-05-11T11:45:26;98131.09;;;13.43;87.26
49611;BME280;35515;48.766;9.176;2023-05-11T11:50:39;98128.38;;;13.43;83.91
49611;BME280;35515;48.766;9.176;2023-05-11T11:53:10;98128.16;;;13.57;87.30
49611;BME280;35515;48.766;9.176;2023-05-11T11:55:47;98133.50;;;13.63;83.58
49611;BME280;35515;48.766;9.176;2023-05-11T12:01:19;98130.44;;;13.60;84.27
49611;BME280;35515;48.766;9.176;2023-05-11T12:06:19;98134.59;;;13.74;76.02
49611;BME280;35515;48.766;9.176;2023-05-11T12:08:47;98126.75;;;13.66;75.94
49611;BME280;35515;48.766;9.176;2023-05-11T12:11:15;98124.75;;;13.61;75.31
49611;BME280;35515;48.766;9.176;2023-05-11T12:13:43;98125.44;;;13.57;75.93
49611;BME280;35515;48.766;9.176;2023-05-11T12:16:11;98115.66;;;13.56;76.87
49611;BME280;35515;48.766;9.176;2023-05-11T12:18:38;98123.59;;;13.69;76.56
49611;BME280;35515;48.766;9.176;2023-05-11T12:21:06;98122.06;;;13.73;74.87
49611;BME280;35515;48.766;9.176;2023-05-11T12:23:32;98119.06;;;13.63;74.96
49611;BME280;35515;48.766;9.176;2023-05-11T12:26:00;98120.63;;;13.59;75.96
49611;BME280;35515;48.766;9.176;2023-05-11T12:28:27;98124.66;;;13.68;75.00
49611;BME280;35515;48.766;9.176;2023-05-11T12:30:55;98123.34;;;13.70;74.47
49611;BME280;35515;48.766;9.176;2023-05-11T12:33:22;98114.13;;;13.71;75.94
49611;BME280;35515;48.766;9.176;2023-05-11T12:35:51;98117.31;;;13.80;75.15
49611;BME280;35515;48.766;9.176;2023-05-11T12:38:18;98110.31;;;13.73;77.40
49611;BME280;35515;48.766;9.176;2023-05-11T12:40:46;98113.28;;;13.71;78.22
49611;BME280;35515;48.766;9.176;2023-05-11T12:43:18;98110.19;;;13.56;78.65
49611;BME280;35515;48.766;9.176;2023-05-11T12:45:45;98107.47;;;13.67;79.07
49611;BME280;35515;48.766;9.176;2023-05-11T12:48:13;98112.59;;;13.76;79.05
49611;BME280;35515;48.766;9.176;2023-05-11T12:50:41;98105.72;;;13.73;79.34
49611;BME280;35515;48.766;9.176;2023-05-11T12:53:11;98108.91;;;13.82;78.87
49611;BME280;35515;48.766;9.176;2023-05-11T12:55:38;98095.16;;;13.77;79.42
49611;BME280;35515;48.766;9.176;2023-05-11T12:58:10;98100.16;;;13.80;77.89
49611;BME280;35515;48.766;9.176;2023-05-11T13:00:49;98097.91;;;13.65;79.06
49611;BME280;35515;48.766;9.176;2023-05-11T13:03:20;98101.22;;;13.79;75.57
49611;BME280;35515;48.766;9.176;2023-05-11T13:05:47;98094.72;;;13.68;76.68
49611;BME280;35515;48.766;9.176;2023-05-11T13:08:13;98088.09;;;13.76;77.38
49611;BME280;35515;48.766;9.176;2023-05-11T13:10:42;98081.81;;;13.75;77.46
49611;BME280;35515;48.766;9.176;2023-05-11T13:13:08;98078.72;;;13.83;75.90
49611;BME280;35515;48.766;9.176;2023-05-11T13:15:50;98076.25;;;13.82;75.29
49611;BME280;35515;48.766;9.176;2023-05-11T13:18:17;98082.28;;;13.72;75.81
49611;BME280;35515;48.766;9.176;2023-05-11T13:20:43;98081.22;;;13.85;74.57
49611;BME280;35515;48.766;9.176;2023-05-11T13:23:11;98077.78;;;13.90;72.53
49611;BME280;35515;48.766;9.176;2023-05-11T13:25:50;98062.06;;;13.92;70.16